Nearby METAR Reports

METAR is the scheduled surface weather observation taken hourly at civil and military airport locations.

METAR is an acronym from the French language and roughly translates as Aviation Routine Weather Report.

 

EGPL - Benbecula Island, United Kingdom
Distance from station: WNW 41mi, 66km
Updated: 24/05/2019 00:20
Overcast
Overcast
 Wind from WNW
Wind: WNW 14 mph , 22 km/h
Temperature: 9°C
Wind Chill: 6°C
Dew Point: 5°C
Humidity: 76%
Barometer: 1016 hPa
Clouds: Overcast
Visibility: 6 miles , 10 km
Cloud details: Overcast 610 m
2019/05/23 23:20 EGPL 232320Z AUTO 30012KT 9999 OVC020/// 09/05 Q1016
EGPU - Tiree Island, United Kingdom
Distance from station: SSW 56mi, 90km
Updated: 24/05/2019 00:20
Overcast
Overcast
 Wind from NW
Wind: NW 14 mph , 22 km/h
Temperature: 10°C
Wind Chill: 7°C
Dew Point: 7°C
Humidity: 82%
Barometer: 1016 hPa
Clouds: Overcast
Visibility: 6 miles , 10 km
Cloud details: Overcast 488 m
2019/05/23 23:20 EGPU 232320Z AUTO 31012KT 9999 OVC016/// 10/07 Q1016
 
EGEO - Oban Airport, United Kingdom
Distance from station: SE 65mi, 105km
Updated: 18/05/2019 16:50
NOT Current
Mostly cloudy
Mostly cloudy
 Wind from NNW
Wind: NNW 7 mph , 11 km/h
Temperature: 12°C
Dew Point: 9°C
Humidity: 82%
Barometer: 1008 hPa
Clouds: Mostly cloudy
Visibility: 6 miles , 10 km
Cloud details: Few Clouds 671 m
Mostly cloudy 1311 m
2019/05/18 15:50 EGEO 181550Z 34006KT 9999 FEW022 BKN043 12/09 Q1008
EGPO - Stornoway, United Kingdom
Distance from station: 0 66mi, 106km
Updated: 24/05/2019 00:20
Overcast
Overcast
 Wind from WNW
Wind: WNW 12 mph , 19 km/h
Temperature: 9°C
Wind Chill: 6°C
Dew Point: 6°C
Humidity: 82%
Barometer: 1014 hPa
Clouds: Overcast
Visibility: 6 miles , 10 km
Cloud details: Overcast 518 m
2019/05/23 23:20 EGPO 232320Z AUTO 30010KT 9999 OVC017/// 09/06 Q1014
 
EGPE - Inverness/Dalcro, United Kingdom
Distance from station: ENE 88mi, 141km
Updated: 24/05/2019 00:20
Overcast
Overcast
 Wind from WSW
Wind: WSW 20 mph , 31 km/h
Temperature: 9°C
Wind Chill: 5°C
Dew Point: 6°C
Humidity: 82%
Barometer: 1013 hPa
Clouds: Overcast
Visibility: 6 miles , 10 km
Cloud details: Few Clouds 579 m
Mostly cloudy 732 m
Overcast 1189 m
2019/05/23 23:20 EGPE 232320Z AUTO 25017KT 9999 FEW019/// BKN024/// OVC039/// 09/06 Q1013
EGQA - Tain Range (saws, United Kingdom
Distance from station: ENE 97mi, 156km
Updated: 22/05/2019 15:50
NOT Current
Partly cloudy
Partly cloudy
 Wind from W
Wind: W 17 mph , 28 km/h
Clouds: Partly cloudy
Visibility: 6 miles , 10 km
Cloud details: Few Clouds 305 m
Partly cloudy 488 m
2019/05/22 14:50 EGQA 221450Z 27015KT 9999 FEW010 SCT016 12/// Q1014 WHT
 
EGQK - Kinloss Raf, United Kingdom
Distance from station: ENE 107mi, 171km
Updated: 23/05/2019 23:50
Overcast
Overcast
 Wind from W
Wind: W 17 mph , 28 km/h
Temperature: 10°C
Wind Chill: 7°C
Dew Point: 7°C
Humidity: 82%
Barometer: 1011 hPa
Clouds: Overcast
Visibility: 6 miles , 10 km
Cloud details: Overcast 701 m
2019/05/23 22:50 EGQK 232250Z AUTO 26015KT 9999 OVC023/// 10/07 Q1011
EGPI - Islay/Port Ellen, United Kingdom
Distance from station: S 110mi, 177km
Updated: 24/05/2019 00:20
Mostly cloudy
Mostly cloudy
 Wind from NNW
Wind: NNW 7 mph , 11 km/h
Temperature: 7°C
Wind Chill: 5°C
Dew Point: 7°C
Humidity: 100%
Barometer: 1017 hPa
Clouds: Mostly cloudy
Visibility: 6 miles , 10 km
Cloud details: Mostly cloudy 549 m
2019/05/23 23:20 EGPI 232320Z AUTO 33006KT 9999 BKN018/// 07/07 Q1017
 
EGQS - Lossiemouth Raf, United Kingdom
Distance from station: ENE 117mi, 188km
Updated: 23/05/2019 23:50
Mostly cloudy
Mostly cloudy
 Wind from WNW
Wind: WNW 21 mph , 33 km/h
Temperature: 10°C
Wind Chill: 6°C
Dew Point: 7°C
Humidity: 82%
Barometer: 1011 hPa
Clouds: Mostly cloudy
Visibility: 6 miles , 10 km
Cloud details: Mostly cloudy 549 m
2019/05/23 22:50 EGQS 232250Z 29018KT 9999 BKN018 10/07 Q1011 WHT NOSIG
EGPF - Glasgow Airport, United Kingdom
Distance from station: SE 121mi, 195km
Updated: 24/05/2019 00:20
Mostly cloudy
Mostly cloudy
 Wind from W
Wind: W 15 mph , 24 km/h
Temperature: 10°C
Wind Chill: 7°C
Dew Point: 6°C
Humidity: 76%
Barometer: 1015 hPa
Clouds: Mostly cloudy
Visibility: 6 miles , 10 km
Cloud details: Mostly cloudy 701 m
2019/05/23 23:20 EGPF 232320Z AUTO 27013KT 9999 BKN023 10/06 Q1015
 
EGEC - Campbeltown, United Kingdom
Distance from station: SSE 129mi, 207km
Updated: 23/05/2019 17:20
NOT Current
Few Clouds
Few Clouds
 Wind from W
Wind: W 13 mph , 20 km/h
Temperature: 12°C
Dew Point: 7°C
Humidity: 72%
Barometer: 1015 hPa
Clouds: Few Clouds
Visibility: 6 miles , 10 km
Cloud details: Few Clouds 914 m
2019/05/23 16:20 EGEC 231620Z 28011KT 9999 FEW030 12/07 Q1015
EGPN - Dundee/Riverside, United Kingdom
Distance from station: ESE 137mi, 221km
Updated: 22/05/2019 19:50
NOT Current
Partly cloudy
Partly cloudy
 Wind from WNW
Wind: WNW 13 mph , 20 km/h
Temperature: 14°C
Dew Point: 7°C
Humidity: 63%
Barometer: 1013 hPa
Clouds: Partly cloudy
Visibility: 6 miles , 10 km
Cloud details: Partly cloudy 1311 m
2019/05/22 18:50 EGPN 221850Z 30011KT 9999 SCT043 14/07 Q1013
 
EGPK - Prestwick(Civ/Na, United Kingdom
Distance from station: SSE 139mi, 224km
Updated: 24/05/2019 00:20
Partly cloudy
Partly cloudy
 Wind from W
Wind: W 8 mph , 13 km/h
Temperature: 11°C
Dew Point: 8°C
Humidity: 82%
Barometer: 1016 hPa
Clouds: Partly cloudy
Visibility: 6 miles , 10 km
Cloud details: Few Clouds 457 m
Partly cloudy 762 m
2019/05/23 23:20 EGPK 232320Z 26007KT 9999 FEW015 SCT025 11/08 Q1016
EGQL - Leuchars Raf, United Kingdom
Distance from station: ESE 145mi, 233km
Updated: 24/05/2019 00:50
Clear
Clear
 Wind from W
Wind: W 12 mph , 19 km/h
Temperature: 10°C
Wind Chill: 7°C
Dew Point: 5°C
Humidity: 71%
Barometer: 1012 hPa
Summary: Clear
Visibility: greater than 7 miles , 10 km
2019/05/23 23:50 EGQL 232350Z 27010KT CAVOK 10/05 Q1012 BLU
 
EGPH - Edinburgh Airpor, United Kingdom
Distance from station: SE 145mi, 234km
Updated: 24/05/2019 00:20
Partly cloudy
Partly cloudy
 Wind from WSW
Wind: WSW 9 mph , 15 km/h
Temperature: 9°C
Wind Chill: 7°C
Dew Point: 7°C
Humidity: 87%
Barometer: 1013 hPa
Clouds: Partly cloudy
Visibility: 6 miles , 10 km
Cloud details: Partly cloudy 640 m
2019/05/23 23:20 EGPH 232320Z 25008KT 9999 SCT021 09/07 Q1013
EGPC - Wick, United Kingdom
Distance from station: NE 146mi, 234km
Updated: 24/05/2019 00:20
Light drizzle, Overcast
Light drizzle, Overcast
 Wind from NW
Wind: NW 20 mph , 31 km/h
Temperature: 8°C
Wind Chill: 3°C
Dew Point: 7°C
Humidity: 93%
Barometer: 1010 hPa
Summary: Light Drizzle
Clouds: Overcast
Visibility: 2 miles , 4 km
Cloud details: Mostly cloudy 91 m
Overcast 213 m
2019/05/23 23:20 EGPC 232320Z AUTO 31017KT 3700 -DZ BKN003/// OVC007/// 08/07 Q1010

-

free counters
QR Code Twitter Scottish Weather Network UK Weather Network
Argyll House B & B

Argyll House B & B is situated in North West Skye and is the perfect base to see all that the Isle of Skye has to offer.
Bookings been taken for 2019.